Time;durP1;ratioP1;P1;durP2;ratioP2;P2;SDS_P1;SDS_P2;PMS_P1;PMS_P2;Temp;Humidity;BMP_temperature;BMP_pressure;BME280_temperature;BME280_humidity;BME280_pressure;Samples;Min_cycle;Max_cycle;Signal;HPM_P1;HPM_P2
2022/09/09 00:01:46;;;;;;;8.30;6.40;;;;;;;13.89;73.84;99419.30;215328;1273;141403;-66
2022/09/09 00:07:21;;;;;;;12.70;8.80;;;;;;;13.79;74.00;99417.99;214506;1274;162654;-66
2022/09/09 00:12:50;;;;;;;9.80;7.40;;;;;;;13.76;74.48;99403.35;215228;1274;142844;-66
2022/09/09 00:18:01;;;;;;;;;;;;;;;13.69;74.53;99405.05;215094;1274;141269;-65
2022/09/09 00:23:14;;;;;;;10.00;7.60;;;;;;;13.67;74.73;99413.94;215179;1274;126768;-65
2022/09/09 00:28:23;;;;;;;11.70;9.00;;;;;;;13.66;75.01;99419.73;214904;1274;141385;-65
2022/09/09 00:33:33;;;;;;;10.60;8.00;;;;;;;13.74;75.01;99417.07;214708;1274;140893;-66
2022/09/09 00:38:42;;;;;;;10.50;7.80;;;;;;;13.81;74.93;99406.20;213845;1274;141680;-65
2022/09/09 00:44:18;;;;;;;11.60;8.90;;;;;;;13.84;75.21;99415.10;214103;1274;141542;-65
2022/09/09 00:49:47;;;;;;;13.90;7.90;;;;;;;13.92;75.25;99420.34;213810;1274;141026;-65
2022/09/09 00:55:28;;;;;;;10.70;8.50;;;;;;;13.91;75.32;99411.22;214490;1274;141487;-66
2022/09/09 01:00:40;;;;;;;10.00;7.60;;;;;;;13.89;75.29;99404.30;213849;1273;141731;-66
2022/09/09 01:06:22;;;;;;;13.70;7.40;;;;;;;13.81;75.52;99405.02;214939;1273;142838;-68
2022/09/09 01:11:36;;;;;;;13.50;8.70;;;;;;;13.71;75.38;99409.04;213602;1274;230657;-66
2022/09/09 01:16:41;;;;;;;10.70;7.10;;;;;;;13.71;75.83;99421.41;214743;1273;141750;-66
2022/09/09 01:22:15;;;;;;;9.70;8.70;;;;;;;13.81;76.18;99429.67;215566;1274;141595;-66
2022/09/09 01:27:23;;;;;;;12.00;9.10;;;;;;;13.91;75.91;99431.16;213732;1274;141785;-66
2022/09/09 01:32:37;;;;;;;8.70;7.00;;;;;;;13.95;76.19;99434.88;215661;1274;141987;-66
2022/09/09 01:37:41;;;;;;;11.40;8.50;;;;;;;14.01;76.39;99449.52;216012;1273;141090;-66
2022/09/09 01:42:48;;;;;;;11.30;8.10;;;;;;;13.99;76.19;99454.40;215330;1273;140658;-66
2022/09/09 01:47:53;;;;;;;10.30;7.40;;;;;;;13.95;76.42;99459.04;216283;1273;139635;-66
2022/09/09 01:53:00;;;;;;;9.90;8.60;;;;;;;13.98;76.53;99462.27;216292;1274;140519;-66
2022/09/09 01:58:22;;;;;;;;;;;;;;;13.95;76.47;99462.42;216067;1274;142036;-66
2022/09/09 02:03:29;;;;;;;10.60;8.10;;;;;;;13.98;76.42;99460.88;216394;1273;126875;-66
2022/09/09 02:08:42;;;;;;;10.90;9.50;;;;;;;14.07;76.88;99466.46;215149;1274;141162;-66
2022/09/09 02:13:51;;;;;;;9.90;9.00;;;;;;;14.08;76.57;99469.89;214844;1273;142607;-65
2022/09/09 02:19:15;;;;;;;11.60;8.50;;;;;;;14.09;76.67;99461.85;215095;1273;140553;-65
2022/09/09 02:24:22;;;;;;;13.70;8.40;;;;;;;14.10;76.56;99464.96;214586;1273;140517;-65
2022/09/09 02:29:33;;;;;;;13.40;9.90;;;;;;;14.09;76.78;99470.27;215600;1272;140457;-67
2022/09/09 02:34:44;;;;;;;9.70;8.70;;;;;;;14.10;76.88;99475.36;214271;1273;142264;-65
2022/09/09 02:39:48;;;;;;;14.90;8.20;;;;;;;14.09;76.75;99481.95;214709;1273;141912;-67
2022/09/09 02:44:53;;;;;;;17.30;9.30;;;;;;;14.04;76.72;99481.00;215149;1274;140907;-65
2022/09/09 02:50:19;;;;;;;16.20;10.30;;;;;;;14.06;77.09;99475.25;213894;1273;140842;-66
2022/09/09 02:55:48;;;;;;;13.40;8.00;;;;;;;14.00;77.04;99480.22;213333;1274;143067;-65
2022/09/09 03:00:52;;;;;;;12.80;10.50;;;;;;;13.91;76.97;99479.17;214270;1274;141414;-66
2022/09/09 03:05:57;;;;;;;11.60;10.40;;;;;;;13.93;77.27;99477.84;214064;1274;142246;-66
2022/09/09 03:11:01;;;;;;;10.50;8.50;;;;;;;13.97;77.58;99475.17;214326;1274;141511;-65
2022/09/09 03:16:07;;;;;;;15.30;9.40;;;;;;;13.92;77.63;99471.73;215357;1274;141773;-66
2022/09/09 03:21:11;;;;;;;13.70;11.10;;;;;;;13.89;77.38;99473.91;214837;1273;141149;-66
2022/09/09 03:26:16;;;;;;;11.00;7.90;;;;;;;13.84;77.59;99478.18;214833;1274;141792;-66
2022/09/09 03:31:21;;;;;;;9.10;7.90;;;;;;;13.80;77.65;99478.21;215872;1273;141168;-67
2022/09/09 03:36:26;;;;;;;14.50;9.70;;;;;;;13.78;77.74;99475.89;215612;1272;140639;-66
2022/09/09 03:41:31;;;;;;;17.80;9.30;;;;;;;13.81;78.23;99475.16;215380;1274;140632;-65
2022/09/09 03:46:34;;;;;;;14.70;12.00;;;;;;;13.84;78.22;99475.33;215714;1274;140600;-66
2022/09/09 03:51:40;;;;;;;18.10;11.40;;;;;;;13.85;78.33;99480.70;215868;1274;142161;-65
2022/09/09 03:56:45;;;;;;;13.40;10.60;;;;;;;13.89;78.29;99485.11;215529;1274;142001;-66
2022/09/09 04:01:49;;;;;;;16.30;11.50;;;;;;;13.93;78.52;99487.55;215610;1273;140431;-66
2022/09/09 04:06:53;;;;;;;19.80;11.30;;;;;;;14.00;78.82;99489.77;215387;1273;141646;-65
2022/09/09 04:11:58;;;;;;;17.60;11.60;;;;;;;14.09;78.83;99494.71;214462;1274;141266;-66
2022/09/09 04:17:06;;;;;;;18.80;11.30;;;;;;;14.10;78.83;99498.37;214579;1273;141894;-66
2022/09/09 04:22:14;;;;;;;18.90;13.90;;;;;;;14.12;79.12;99497.41;214741;1273;140073;-66
2022/09/09 04:27:17;;;;;;;20.10;14.30;;;;;;;14.18;79.19;99498.17;214708;1274;141900;-66
2022/09/09 04:32:22;;;;;;;18.60;13.50;;;;;;;14.18;79.38;99499.84;213369;1274;142958;-66
2022/09/09 04:37:27;;;;;;;20.60;13.20;;;;;;;14.24;79.62;99506.52;213293;1272;141048;-66
2022/09/09 04:42:38;;;;;;;23.70;15.90;;;;;;;14.33;79.67;99503.76;213907;1274;141298;-65
2022/09/09 04:47:42;;;;;;;19.90;13.80;;;;;;;14.36;79.88;99499.15;213253;1274;140781;-66
2022/09/09 04:52:46;;;;;;;24.60;15.50;;;;;;;14.45;80.29;99505.45;213399;1274;141393;-65
2022/09/09 04:57:51;;;;;;;20.90;14.10;;;;;;;14.54;80.38;99510.20;214539;1274;140925;-67
2022/09/09 05:02:56;;;;;;;24.90;17.70;;;;;;;14.63;80.56;99513.55;213159;1274;140882;-67
2022/09/09 05:08:05;;;;;;;25.20;15.90;;;;;;;14.74;80.55;99512.26;214254;1274;141153;-66
2022/09/09 05:13:09;;;;;;;25.50;16.70;;;;;;;14.86;80.65;99516.56;214145;1273;142864;-65
2022/09/09 05:18:14;;;;;;;21.70;16.20;;;;;;;14.98;80.94;99516.89;214119;1274;140306;-65
2022/09/09 05:23:19;;;;;;;23.20;16.80;;;;;;;15.14;80.91;99523.86;215312;1274;141524;-65
2022/09/09 05:28:28;;;;;;;23.00;16.20;;;;;;;15.28;80.95;99522.77;215161;1274;140729;-64
2022/09/09 05:33:34;;;;;;;25.10;16.90;;;;;;;15.43;80.95;99523.77;215428;1274;140512;-65
2022/09/09 05:38:38;;;;;;;25.30;16.80;;;;;;;15.58;80.90;99531.94;215922;1273;141587;-64
2022/09/09 05:43:44;;;;;;;30.30;18.00;;;;;;;15.68;80.84;99531.91;216161;1273;140432;-65
2022/09/09 05:48:51;;;;;;;29.30;18.30;;;;;;;15.81;80.89;99535.27;215966;1273;140780;-65
2022/09/09 05:53:58;;;;;;;23.90;17.00;;;;;;;15.89;80.62;99535.90;216032;1274;141053;-65
2022/09/09 05:59:02;;;;;;;25.90;18.90;;;;;;;15.96;80.60;99542.34;213837;1274;141091;-64
2022/09/09 06:04:06;;;;;;;25.40;18.60;;;;;;;16.00;80.69;99545.67;214856;1274;140821;-64
2022/09/09 06:09:10;;;;;;;23.00;16.40;;;;;;;16.11;80.82;99550.58;215296;1273;141604;-64
2022/09/09 06:14:14;;;;;;;23.20;17.20;;;;;;;16.20;80.60;99553.34;214089;1274;141519;-65
2022/09/09 06:19:20;;;;;;;25.90;18.10;;;;;;;16.27;80.74;99551.89;214709;1273;141298;-65
2022/09/09 06:24:24;;;;;;;24.50;16.60;;;;;;;16.39;80.66;99553.95;214626;1273;141754;-65
2022/09/09 06:29:29;;;;;;;23.70;18.30;;;;;;;16.51;80.56;99555.77;214864;1274;141421;-64
2022/09/09 06:34:33;;;;;;;24.70;17.00;;;;;;;16.56;80.52;99553.61;214300;1273;141345;-64
2022/09/09 06:39:37;;;;;;;21.40;15.80;;;;;;;16.67;80.44;99557.95;214435;1274;143575;-63
2022/09/09 06:44:41;;;;;;;18.40;14.40;;;;;;;16.79;80.52;99559.60;214249;1274;141803;-64
2022/09/09 06:49:45;;;;;;;26.40;16.00;;;;;;;16.87;80.24;99565.13;213987;1274;140777;-64
2022/09/09 06:54:51;;;;;;;19.40;16.30;;;;;;;16.87;79.89;99572.56;213960;1273;140453;-65
2022/09/09 06:59:56;;;;;;;26.30;15.80;;;;;;;16.87;79.96;99571.75;214012;1274;140075;-64
2022/09/09 07:05:00;;;;;;;20.40;16.10;;;;;;;16.96;80.09;99566.75;214421;1274;140867;-64
2022/09/09 07:10:07;;;;;;;16.70;14.00;;;;;;;17.09;79.98;99574.79;214084;1274;141255;-64
2022/09/09 07:15:11;;;;;;;20.30;15.20;;;;;;;17.15;79.91;99579.35;214100;1274;141671;-64
2022/09/09 07:20:15;;;;;;;17.90;14.50;;;;;;;17.20;79.53;99580.77;214157;1273;142144;-64
2022/09/09 07:25:20;;;;;;;24.10;16.20;;;;;;;17.28;79.89;99586.33;215898;1274;141892;-64
2022/09/09 07:30:24;;;;;;;17.10;15.30;;;;;;;17.34;79.71;99590.05;212475;1274;1534562;-63
2022/09/09 07:35:30;;;;;;;20.20;14.30;;;;;;;17.43;79.43;99595.56;215623;1273;142301;-64
2022/09/09 07:40:36;;;;;;;20.80;14.20;;;;;;;17.55;79.42;99600.63;216086;1274;141602;-65
2022/09/09 07:45:41;;;;;;;21.00;14.50;;;;;;;17.68;79.10;99604.75;216186;1274;142064;-64
2022/09/09 07:50:45;;;;;;;16.30;14.30;;;;;;;17.74;78.77;99614.59;216415;1274;141151;-65
2022/09/09 07:55:49;;;;;;;14.10;12.00;;;;;;;17.79;78.56;99614.83;215988;1273;140497;-65
2022/09/09 08:00:54;;;;;;;14.90;11.90;;;;;;;17.91;78.22;99622.59;215159;1273;140967;-65
2022/09/09 08:06:04;;;;;;;14.60;11.70;;;;;;;18.12;78.06;99630.13;214564;1274;140428;-64
2022/09/09 08:11:12;;;;;;;11.50;10.00;;;;;;;18.33;77.60;99639.55;214722;1274;140575;-65
2022/09/09 08:16:27;;;;;;;11.70;10.30;;;;;;;18.50;77.27;99638.30;214756;1274;142138;-65
2022/09/09 08:21:33;;;;;;;12.30;11.00;;;;;;;18.71;76.85;99638.23;213670;1274;140265;-64
2022/09/09 08:26:41;;;;;;;12.70;10.90;;;;;;;18.89;76.35;99644.20;214558;1272;141257;-65
2022/09/09 08:31:57;;;;;;;13.20;10.40;;;;;;;18.94;76.14;99651.42;214464;1274;141427;-65
2022/09/09 08:37:02;;;;;;;14.90;13.10;;;;;;;19.05;76.05;99656.88;213912;1273;140519;-65
2022/09/09 08:42:25;;;;;;;14.80;12.50;;;;;;;19.10;75.69;99655.89;214361;1272;141030;-64
2022/09/09 08:48:01;;;;;;;20.40;12.40;;;;;;;19.13;75.34;99664.27;213518;1274;140908;-66
2022/09/09 08:53:08;;;;;;;17.20;13.50;;;;;;;19.09;75.06;99670.88;214291;1273;142175;-66
2022/09/09 08:58:40;;;;;;;15.50;13.20;;;;;;;19.20;75.16;99668.19;214863;1273;140047;-65
2022/09/09 09:04:03;;;;;;;18.90;12.30;;;;;;;19.42;74.95;99667.45;214597;1274;140427;-66
2022/09/09 09:09:16;;;;;;;13.70;11.90;;;;;;;19.67;74.45;99670.52;214550;1273;140851;-65
2022/09/09 09:14:23;;;;;;;15.40;13.00;;;;;;;19.98;74.28;99672.32;214309;1273;141007;-66
2022/09/09 09:19:28;;;;;;;;;;;;;;;20.17;73.98;99674.56;215517;1273;140456;-65
2022/09/09 09:24:42;;;;;;;14.60;12.10;;;;;;;20.22;73.41;99672.30;215978;1273;126357;-65
2022/09/09 09:29:52;;;;;;;12.30;10.80;;;;;;;20.49;73.11;99675.64;216238;1274;141211;-65
2022/09/09 09:35:16;;;;;;;13.00;10.90;;;;;;;20.90;72.67;99672.80;216039;1276;139942;-64
2022/09/09 09:40:22;;;;;;;12.20;10.90;;;;;;;21.00;71.55;99668.40;216048;1274;141728;-64
2022/09/09 09:45:48;;;;;;;9.40;8.00;;;;;;;20.78;70.64;99669.61;216090;1274;140873;-64
2022/09/09 09:51:16;;;;;;;8.70;6.90;;;;;;;20.75;70.59;99669.06;215707;1274;139794;-64
2022/09/09 09:56:32;;;;;;;10.50;6.40;;;;;;;20.86;70.28;99678.67;215522;1272;140873;-64
2022/09/09 10:01:36;;;;;;;6.90;6.30;;;;;;;21.21;70.14;99676.72;214662;1273;141126;-64
2022/09/09 10:06:40;;;;;;;7.20;6.60;;;;;;;21.85;69.70;99679.29;215402;1273;140185;-63
2022/09/09 10:11:57;;;;;;;7.30;6.40;;;;;;;22.33;68.70;99683.58;214844;1273;140405;-64
2022/09/09 10:17:09;;;;;;;7.30;6.60;;;;;;;22.78;67.65;99678.39;214166;1274;139939;-64
2022/09/09 10:22:27;;;;;;;8.90;6.70;;;;;;;23.24;66.89;99682.52;214885;1274;140260;-65
2022/09/09 10:27:44;;;;;;;7.40;6.80;;;;;;;23.87;66.07;99684.61;214422;1274;141301;-64
2022/09/09 10:33:05;;;;;;;8.00;7.20;;;;;;;24.19;64.86;99693.85;214176;1273;139525;-65
2022/09/09 10:38:14;;;;;;;10.90;7.90;;;;;;;23.97;64.16;99699.13;213458;1274;140031;-64
2022/09/09 10:44:04;;;;;;;7.40;6.70;;;;;;;23.51;63.36;99703.54;213532;1274;140015;-65
2022/09/09 10:49:38;;;;;;;8.50;7.60;;;;;;;23.45;63.55;99703.83;213585;1280;139656;-65
2022/09/09 10:55:17;;;;;;;6.80;6.20;;;;;;;23.14;62.70;99704.14;214827;1274;143260;-66
2022/09/09 11:00:26;;;;;;;7.20;6.50;;;;;;;23.20;63.10;99709.84;214030;1274;162660;-65
2022/09/09 11:05:43;;;;;;;7.50;6.80;;;;;;;23.25;62.60;99720.05;214465;1272;142167;-66
2022/09/09 11:11:03;;;;;;;7.00;6.10;;;;;;;23.41;62.52;99719.02;214666;1272;141131;-66
2022/09/09 11:16:23;;;;;;;6.90;6.30;;;;;;;23.65;61.71;99709.95;214321;1274;140344;-66
2022/09/09 11:21:32;;;;;;;6.40;5.80;;;;;;;23.83;61.42;99715.19;214954;1273;140342;-66
2022/09/09 11:27:00;;;;;;;5.50;5.10;;;;;;;23.93;60.89;99713.33;215739;1271;141081;-65
2022/09/09 11:32:35;;;;;;;5.30;4.80;;;;;;;24.21;60.09;99712.85;214644;1273;140462;-66
2022/09/09 11:38:09;;;;;;;4.70;4.40;;;;;;;24.45;59.29;99703.58;216145;1273;141472;-66
2022/09/09 11:43:18;;;;;;;4.80;4.40;;;;;;;24.68;59.34;99701.22;215869;1273;140535;-64
2022/09/09 11:48:26;;;;;;;4.30;4.00;;;;;;;24.50;58.35;99695.95;215839;1273;140890;-65
2022/09/09 11:53:35;;;;;;;7.50;4.90;;;;;;;24.49;58.41;99692.59;215662;1272;139961;-65
2022/09/09 11:59:05;;;;;;;4.00;3.60;;;;;;;24.42;58.06;99688.34;215869;1272;140035;-66
2022/09/09 12:04:08;;;;;;;3.60;3.30;;;;;;;24.34;58.04;99678.44;215116;1273;139578;-64
2022/09/09 12:09:34;;;;;;;5.60;3.80;;;;;;;24.49;57.64;99672.52;215074;1274;140514;-66
2022/09/09 12:14:55;;;;;;;4.30;4.00;;;;;;;24.68;57.53;99674.41;215532;1274;139622;-67
2022/09/09 12:20:13;;;;;;;4.20;3.90;;;;;;;24.34;56.30;99670.58;214204;1273;139727;-65
2022/09/09 12:25:49;;;;;;;4.40;4.10;;;;;;;24.34;57.01;99666.28;214679;1273;139792;-67
2022/09/09 12:31:28;;;;;;;3.20;2.90;;;;;;;24.52;56.88;99674.10;214624;1272;140000;-66
2022/09/09 12:36:33;;;;;;;3.20;3.00;;;;;;;24.52;56.62;99676.20;214589;1274;143051;-66
2022/09/09 12:41:37;;;;;;;4.10;3.80;;;;;;;24.55;56.41;99670.17;213698;1274;233775;-67
2022/09/09 12:46:46;;;;;;;4.00;3.60;;;;;;;24.38;56.14;99671.41;213752;1274;141278;-66
2022/09/09 12:51:50;;;;;;;4.00;3.70;;;;;;;24.09;56.34;99671.64;214741;1274;141585;-65
2022/09/09 12:56:55;;;;;;;6.30;4.20;;;;;;;24.27;56.72;99679.48;214520;1273;140640;-65
2022/09/09 13:01:59;;;;;;;3.50;3.20;;;;;;;24.90;56.48;99681.98;214670;1273;140931;-64
2022/09/09 13:07:10;;;;;;;3.40;3.10;;;;;;;25.17;55.38;99679.22;214175;1273;140907;-65
2022/09/09 13:12:19;;;;;;;4.30;3.60;;;;;;;25.22;54.40;99674.80;213995;1274;140914;-65
2022/09/09 13:17:29;;;;;;;5.00;3.20;;;;;;;24.93;54.32;99670.58;214532;1274;141471;-64
2022/09/09 13:22:36;;;;;;;4.40;4.00;;;;;;;24.59;54.86;99670.71;214698;1273;140436;-66
2022/09/09 13:27:53;;;;;;;3.60;3.30;;;;;;;24.34;54.85;99670.97;215148;1273;139766;-65
2022/09/09 13:33:17;;;;;;;7.40;3.00;;;;;;;24.18;55.45;99667.70;216183;1272;141054;-66
2022/09/09 13:38:21;;;;;;;4.10;3.70;;;;;;;23.97;56.04;99669.63;216388;1272;139598;-65
2022/09/09 13:43:44;;;;;;;3.40;3.20;;;;;;;23.86;56.25;99661.27;216171;1273;140439;-65
2022/09/09 13:48:58;;;;;;;3.50;3.20;;;;;;;23.88;56.28;99661.80;216101;1273;139985;-65
2022/09/09 13:54:06;;;;;;;4.00;2.80;;;;;;;23.72;56.07;99660.35;215792;1273;140138;-65
2022/09/09 13:59:15;;;;;;;4.10;3.30;;;;;;;23.51;56.35;99660.65;214037;1274;142155;-64
2022/09/09 14:04:20;;;;;;;2.60;2.50;;;;;;;23.31;56.72;99661.69;214891;1274;143534;-65
2022/09/09 14:09:25;;;;;;;3.10;2.70;;;;;;;23.04;57.80;99666.80;213439;1274;140615;-66
2022/09/09 14:14:29;;;;;;;3.60;3.30;;;;;;;22.77;58.15;99657.12;213830;1274;151777;-65
2022/09/09 14:19:34;;;;;;;3.40;3.10;;;;;;;22.54;58.63;99659.21;214687;1274;140178;-65
2022/09/09 14:24:39;;;;;;;3.40;3.10;;;;;;;22.45;59.61;99669.79;214217;1273;139655;-65
2022/09/09 14:29:44;;;;;;;3.50;3.30;;;;;;;22.40;60.19;99662.70;214621;1274;141383;-66
2022/09/09 14:34:50;;;;;;;3.20;2.70;;;;;;;22.56;60.90;99657.36;214382;1274;141628;-65
2022/09/09 14:39:56;;;;;;;3.40;3.20;;;;;;;22.65;60.58;99668.72;214337;1273;141535;-66
2022/09/09 14:45:01;;;;;;;3.60;3.30;;;;;;;22.65;60.93;99670.52;214407;1272;140577;-64
2022/09/09 14:50:11;;;;;;;3.90;3.10;;;;;;;22.73;61.24;99661.90;214165;1274;152864;-65
2022/09/09 14:55:16;;;;;;;3.10;2.90;;;;;;;22.88;60.24;99644.44;214368;1274;140505;-65
2022/09/09 15:00:22;;;;;;;;;;;;;;;23.00;59.24;99643.29;214247;1273;139759;-64
2022/09/09 15:05:32;;;;;;;2.80;2.70;;;;;;;23.07;58.62;99652.38;215114;1274;126737;-65
2022/09/09 15:10:37;;;;;;;5.80;3.20;;;;;;;23.07;58.28;99655.90;215440;1273;141027;-65
2022/09/09 15:15:41;;;;;;;3.50;3.20;;;;;;;23.04;57.81;99649.69;214345;1271;139891;-65
2022/09/09 15:20:48;;;;;;;4.40;3.30;;;;;;;23.02;57.55;99647.98;214895;1274;140293;-65
2022/09/09 15:25:56;;;;;;;2.80;2.70;;;;;;;22.93;57.36;99645.91;216185;1274;139847;-65
2022/09/09 15:31:17;;;;;;;2.70;2.50;;;;;;;22.83;57.30;99642.77;213900;1272;143352;-67
2022/09/09 15:36:32;;;;;;;2.90;2.80;;;;;;;22.74;57.38;99645.58;214161;1273;140102;-66
2022/09/09 15:41:36;;;;;;;3.10;2.90;;;;;;;22.65;57.45;99645.52;214889;1274;140562;-66
2022/09/09 15:46:43;;;;;;;3.30;3.00;;;;;;;22.58;57.67;99639.77;215835;1274;141373;-66
2022/09/09 15:52:09;;;;;;;2.80;2.60;;;;;;;22.52;57.85;99637.70;214418;1274;139584;-66
2022/09/09 15:57:14;;;;;;;12.00;3.20;;;;;;;22.40;58.23;99636.73;215479;1274;142842;-66
2022/09/09 16:02:21;;;;;;;3.60;3.30;;;;;;;22.28;58.73;99637.31;215184;1274;140480;-66
2022/09/09 16:07:26;;;;;;;4.10;3.70;;;;;;;22.14;59.33;99639.14;215683;1274;139496;-66
2022/09/09 16:12:31;;;;;;;3.70;3.40;;;;;;;21.99;59.83;99639.15;215178;1276;139454;-66
2022/09/09 16:17:37;;;;;;;7.20;3.10;;;;;;;21.81;60.42;99641.09;215064;1274;141028;-66
2022/09/09 16:22:42;;;;;;;;;;;;;;;21.68;60.65;99644.26;213866;1274;140659;-66
2022/09/09 16:27:46;;;;;;;5.00;3.60;;;;;;;21.55;61.04;99647.13;215201;1274;127690;-67
2022/09/09 16:32:50;;;;;;;3.80;3.50;;;;;;;21.46;61.43;99648.38;214278;1274;140945;-66
2022/09/09 16:37:54;;;;;;;3.90;3.40;;;;;;;21.33;61.96;99648.48;213165;1274;140541;-65
2022/09/09 16:42:57;;;;;;;5.10;4.60;;;;;;;21.17;62.38;99642.27;213228;1276;143591;-65
2022/09/09 16:48:01;;;;;;;4.90;4.50;;;;;;;21.00;62.75;99645.60;214123;1276;139693;-65
2022/09/09 16:53:08;;;;;;;6.80;4.80;;;;;;;20.83;63.22;99646.59;214140;1274;140860;-65
2022/09/09 16:58:13;;;;;;;5.60;5.10;;;;;;;20.69;63.49;99650.98;215082;1274;139654;-65
2022/09/09 17:03:17;;;;;;;6.40;5.80;;;;;;;20.53;63.64;99653.04;215314;1274;140332;-64
2022/09/09 17:08:22;;;;;;;7.20;4.90;;;;;;;20.35;64.04;99654.14;213180;1276;140364;-64
2022/09/09 17:13:27;;;;;;;6.30;5.50;;;;;;;20.17;64.24;99661.73;215252;1274;143446;-65
2022/09/09 17:18:31;;;;;;;5.70;4.50;;;;;;;20.01;64.58;99666.05;216177;1274;141285;-65
2022/09/09 17:23:37;;;;;;;5.10;4.70;;;;;;;19.87;65.00;99668.57;214369;1274;141687;-65
2022/09/09 17:28:43;;;;;;;5.80;5.30;;;;;;;19.73;65.31;99679.80;215992;1274;141516;-66
2022/09/09 17:33:49;;;;;;;14.60;5.40;;;;;;;19.58;65.47;99678.15;215985;1274;140331;-66
2022/09/09 17:38:53;;;;;;;5.60;5.00;;;;;;;19.45;65.83;99674.66;215949;1274;141384;-65
2022/09/09 17:43:59;;;;;;;5.10;4.20;;;;;;;19.34;65.99;99674.21;216066;1274;141544;-65
2022/09/09 17:49:06;;;;;;;6.50;5.90;;;;;;;19.23;66.10;99679.95;215772;1274;140823;-65
2022/09/09 17:54:21;;;;;;;6.30;5.70;;;;;;;19.11;66.52;99685.32;214803;1274;140715;-65
2022/09/09 17:59:26;;;;;;;8.20;7.40;;;;;;;18.97;66.85;99694.54;215319;1274;246833;-65
2022/09/09 18:04:35;;;;;;;8.20;6.50;;;;;;;18.86;67.09;99693.45;213845;1274;140490;-64
2022/09/09 18:09:41;;;;;;;9.80;7.20;;;;;;;18.81;67.58;99702.42;214942;1274;140340;-66
2022/09/09 18:14:47;;;;;;;8.90;8.00;;;;;;;18.77;67.72;99712.19;213630;1274;141335;-64
2022/09/09 18:19:52;;;;;;;10.20;7.30;;;;;;;18.70;68.16;99709.35;214133;1277;140450;-63
2022/09/09 18:24:56;;;;;;;11.10;8.70;;;;;;;18.65;68.28;99711.32;214639;1274;141829;-65
2022/09/09 18:30:02;;;;;;;10.00;8.90;;;;;;;18.58;68.30;99714.67;213086;1275;141563;-65
2022/09/09 18:35:07;;;;;;;10.20;9.20;;;;;;;18.45;68.69;99716.69;214083;1276;140129;-63
2022/09/09 18:40:11;;;;;;;12.00;10.90;;;;;;;18.32;69.05;99714.84;213768;1274;140164;-64
2022/09/09 18:45:17;;;;;;;14.40;10.80;;;;;;;18.20;69.29;99716.05;213819;1276;140143;-65
2022/09/09 18:50:22;;;;;;;12.30;9.50;;;;;;;18.11;69.60;99715.33;213107;1276;141715;-64
2022/09/09 18:55:27;;;;;;;17.40;12.70;;;;;;;18.06;69.85;99722.96;213844;1277;140533;-63
2022/09/09 19:00:32;;;;;;;14.00;11.90;;;;;;;18.05;70.08;99724.65;213865;1277;139877;-65
2022/09/09 19:05:38;;;;;;;13.10;11.50;;;;;;;18.00;70.37;99730.65;214471;1276;140529;-64
2022/09/09 19:10:43;;;;;;;13.00;11.30;;;;;;;17.97;70.31;99731.59;215022;1274;141115;-63
2022/09/09 19:15:47;;;;;;;17.90;12.80;;;;;;;17.90;70.21;99733.42;213189;1275;140817;-65
2022/09/09 19:20:52;;;;;;;14.70;12.60;;;;;;;17.77;70.34;99726.89;214560;1274;140150;-65
2022/09/09 19:26:01;;;;;;;21.30;13.20;;;;;;;17.61;70.71;99719.41;216061;1274;140740;-67
2022/09/09 19:31:07;;;;;;;18.80;13.60;;;;;;;17.47;71.01;99718.79;213225;1276;2241489;-66
2022/09/09 19:36:12;;;;;;;;;;;;;;;17.30;71.62;99718.64;215420;1276;141179;-66
2022/09/09 19:41:22;;;;;;;23.30;13.10;;;;;;;17.14;72.23;99715.94;215617;1276;127064;-65
2022/09/09 19:46:30;;;;;;;15.50;11.90;;;;;;;17.08;72.59;99719.41;216039;1274;141124;-68
2022/09/09 19:51:38;;;;;;;17.30;13.70;;;;;;;17.05;72.86;99718.52;214328;1274;231519;-66
2022/09/09 19:56:43;;;;;;;17.90;14.50;;;;;;;17.02;72.91;99723.22;213975;1274;141247;-66
2022/09/09 20:01:48;;;;;;;16.20;14.40;;;;;;;17.00;73.27;99726.14;214964;1274;142332;-66
2022/09/09 20:06:53;;;;;;;21.00;14.90;;;;;;;17.03;73.53;99721.06;214609;1274;141634;-66
2022/09/09 20:11:58;;;;;;;19.10;14.60;;;;;;;16.98;73.35;99716.02;213119;1274;142271;-66
2022/09/09 20:17:05;;;;;;;14.90;11.90;;;;;;;16.93;73.48;99717.93;213187;1274;142614;-65
2022/09/09 20:22:15;;;;;;;17.70;14.60;;;;;;;16.85;73.69;99716.17;214057;1274;141861;-64
2022/09/09 20:27:21;;;;;;;17.80;13.70;;;;;;;16.72;74.07;99725.08;213146;1277;141689;-66
2022/09/09 20:32:26;;;;;;;17.00;12.30;;;;;;;16.55;74.20;99730.65;213243;1274;141531;-66
2022/09/09 20:37:31;;;;;;;18.70;13.60;;;;;;;16.43;74.60;99734.29;214102;1271;142778;-66
2022/09/09 20:42:37;;;;;;;20.00;15.20;;;;;;;16.38;74.79;99732.36;213216;1274;141065;-65
2022/09/09 20:47:41;;;;;;;20.60;13.50;;;;;;;16.36;74.92;99735.80;213978;1274;142172;-65
2022/09/09 20:52:46;;;;;;;17.30;13.80;;;;;;;16.26;75.16;99739.05;213337;1274;142425;-66
2022/09/09 20:57:51;;;;;;;15.10;13.10;;;;;;;16.15;75.41;99741.88;213243;1277;141212;-66
2022/09/09 21:02:56;;;;;;;21.20;14.50;;;;;;;16.08;75.49;99749.84;214550;1275;142038;-66
2022/09/09 21:08:02;;;;;;;20.20;14.30;;;;;;;16.00;75.75;99750.48;213576;1275;142393;-65
2022/09/09 21:13:08;;;;;;;17.60;11.80;;;;;;;15.94;75.88;99757.41;214675;1276;141448;-67
2022/09/09 21:18:13;;;;;;;17.70;14.50;;;;;;;15.86;76.26;99761.85;214475;1274;140208;-67
2022/09/09 21:23:18;;;;;;;18.60;14.10;;;;;;;15.81;76.57;99763.46;214325;1274;141233;-66
2022/09/09 21:28:24;;;;;;;22.60;16.50;;;;;;;15.80;76.73;99759.80;214063;1274;142391;-65
2022/09/09 21:33:29;;;;;;;17.00;11.70;;;;;;;15.77;76.69;99768.34;214682;1274;142950;-65
2022/09/09 21:38:33;;;;;;;22.50;16.00;;;;;;;15.71;76.90;99766.93;214917;1274;142085;-66
2022/09/09 21:43:39;;;;;;;21.10;16.50;;;;;;;15.69;77.05;99759.09;215991;1274;163117;-66
2022/09/09 21:48:43;;;;;;;18.90;15.40;;;;;;;15.71;77.28;99757.05;215804;1277;142329;-66
2022/09/09 21:53:48;;;;;;;19.90;13.90;;;;;;;15.71;77.25;99754.89;215848;1274;141971;-65
2022/09/09 21:58:57;;;;;;;23.40;17.70;;;;;;;15.66;77.23;99757.20;213236;1274;142379;-65
2022/09/09 22:04:02;;;;;;;21.30;16.90;;;;;;;15.66;77.26;99756.88;213870;1274;142533;-64
2022/09/09 22:09:06;;;;;;;22.00;16.90;;;;;;;15.64;77.42;99753.33;213260;1274;142880;-66
2022/09/09 22:14:10;;;;;;;26.60;18.40;;;;;;;15.59;77.45;99749.45;213597;1274;141803;-66
2022/09/09 22:19:14;;;;;;;20.40;16.50;;;;;;;15.50;77.73;99743.02;214477;1274;142232;-66
2022/09/09 22:24:17;;;;;;;23.70;16.80;;;;;;;15.42;77.91;99739.46;213631;1274;141363;-65
2022/09/09 22:29:21;;;;;;;20.90;14.20;;;;;;;15.34;78.05;99739.75;214659;1274;140772;-64
2022/09/09 22:34:27;;;;;;;29.60;18.30;;;;;;;15.28;78.38;99732.66;213395;1275;142268;-65
2022/09/09 22:39:31;;;;;;;22.20;17.10;;;;;;;15.26;78.53;99724.57;213251;1274;142291;-64
2022/09/09 22:44:34;;;;;;;25.10;17.50;;;;;;;15.28;78.81;99718.21;214580;1274;142777;-64
2022/09/09 22:49:38;;;;;;;20.70;16.70;;;;;;;15.30;78.90;99714.89;213180;1276;142358;-64
2022/09/09 22:54:45;;;;;;;30.30;21.00;;;;;;;15.30;78.94;99713.23;213985;1274;142128;-64
2022/09/09 22:59:49;;;;;;;33.40;19.80;;;;;;;15.33;79.19;99712.10;213406;1274;141286;-64
2022/09/09 23:04:52;;;;;;;29.60;19.30;;;;;;;15.42;79.37;99713.78;213453;1274;140652;-64
2022/09/09 23:09:56;;;;;;;28.10;17.00;;;;;;;15.47;79.20;99714.05;214076;1274;141479;-65
2022/09/09 23:15:01;;;;;;;19.00;15.00;;;;;;;15.45;79.16;99713.41;214089;1276;142622;-67
2022/09/09 23:20:09;;;;;;;25.00;18.50;;;;;;;15.44;79.25;99709.81;213591;1274;141805;-67
2022/09/09 23:25:14;;;;;;;20.20;16.30;;;;;;;15.39;79.17;99707.76;213675;1277;141701;-64